sensor_id;sensor_type;location;lat;lon;timestamp;pressure;altitude;pressure_sealevel;temperature;humidity
11448;BME280;43755;49.736;8.734;2023-05-14T00:01:23;97982.22;;;8.92;100.00
11448;BME280;43755;49.736;8.734;2023-05-14T00:03:25;97974.53;;;8.86;100.00
11448;BME280;43755;49.736;8.734;2023-05-14T00:05:26;97978.09;;;8.85;100.00
11448;BME280;43755;49.736;8.734;2023-05-14T00:07:27;97970.28;;;8.82;100.00
11448;BME280;43755;49.736;8.734;2023-05-14T00:09:31;97966.78;;;8.81;100.00
11448;BME280;43755;49.736;8.734;2023-05-14T00:11:32;97968.44;;;8.84;100.00
11448;BME280;43755;49.736;8.734;2023-05-14T00:13:34;97964.78;;;8.88;100.00
11448;BME280;43755;49.736;8.734;2023-05-14T00:15:35;97966.44;;;8.90;100.00
11448;BME280;43755;49.736;8.734;2023-05-14T00:17:36;97957.78;;;8.87;100.00
11448;BME280;43755;49.736;8.734;2023-05-14T00:19:38;97962.38;;;8.82;100.00
11448;BME280;43755;49.736;8.734;2023-05-14T00:21:41;97955.72;;;8.72;100.00
11448;BME280;43755;49.736;8.734;2023-05-14T00:23:42;97956.03;;;8.62;100.00
11448;BME280;43755;49.736;8.734;2023-05-14T00:25:45;97954.66;;;8.52;100.00
11448;BME280;43755;49.736;8.734;2023-05-14T00:27:46;97955.78;;;8.45;100.00
11448;BME280;43755;49.736;8.734;2023-05-14T00:29:47;97955.13;;;8.39;100.00
11448;BME280;43755;49.736;8.734;2023-05-14T00:31:49;97952.75;;;8.31;100.00
11448;BME280;43755;49.736;8.734;2023-05-14T00:33:50;97952.78;;;8.30;100.00
11448;BME280;43755;49.736;8.734;2023-05-14T00:35:51;97949.25;;;8.31;100.00
11448;BME280;43755;49.736;8.734;2023-05-14T00:37:53;97947.47;;;8.31;100.00
11448;BME280;43755;49.736;8.734;2023-05-14T00:39:54;97950.16;;;8.30;100.00
11448;BME280;43755;49.736;8.734;2023-05-14T00:41:57;97943.13;;;8.30;100.00
11448;BME280;43755;49.736;8.734;2023-05-14T00:43:59;97939.56;;;8.31;100.00
11448;BME280;43755;49.736;8.734;2023-05-14T00:46:00;97936.88;;;8.33;100.00
11448;BME280;43755;49.736;8.734;2023-05-14T00:48:02;97936.94;;;8.31;100.00
11448;BME280;43755;49.736;8.734;2023-05-14T00:50:04;97936.09;;;8.29;100.00
11448;BME280;43755;49.736;8.734;2023-05-14T00:52:06;97930.06;;;8.26;100.00
11448;BME280;43755;49.736;8.734;2023-05-14T00:54:08;97934.63;;;8.20;100.00
11448;BME280;43755;49.736;8.734;2023-05-14T00:56:10;97932.00;;;8.20;100.00
11448;BME280;43755;49.736;8.734;2023-05-14T00:58:13;97927.72;;;8.18;100.00
11448;BME280;43755;49.736;8.734;2023-05-14T01:00:15;97919.84;;;8.16;100.00
11448;BME280;43755;49.736;8.734;2023-05-14T01:02:16;97931.34;;;8.14;100.00
11448;BME280;43755;49.736;8.734;2023-05-14T01:04:18;97923.56;;;8.11;100.00
11448;BME280;43755;49.736;8.734;2023-05-14T01:06:25;97936.78;;;8.09;100.00
11448;BME280;43755;49.736;8.734;2023-05-14T01:08:35;97935.91;;;8.09;100.00
11448;BME280;43755;49.736;8.734;2023-05-14T01:10:45;97932.75;;;7.99;100.00
11448;BME280;43755;49.736;8.734;2023-05-14T01:12:57;97937.34;;;7.93;100.00
11448;BME280;43755;49.736;8.734;2023-05-14T01:15:12;97921.59;;;7.91;100.00
11448;BME280;43755;49.736;8.734;2023-05-14T01:17:15;97926.09;;;7.88;100.00
11448;BME280;43755;49.736;8.734;2023-05-14T01:19:23;97926.09;;;7.88;100.00
11448;BME280;43755;49.736;8.734;2023-05-14T01:21:35;97928.03;;;7.82;100.00
11448;BME280;43755;49.736;8.734;2023-05-14T01:23:37;97923.72;;;7.80;100.00
11448;BME280;43755;49.736;8.734;2023-05-14T01:25:38;97925.72;;;7.72;100.00
11448;BME280;43755;49.736;8.734;2023-05-14T01:27:44;97921.53;;;7.66;100.00
11448;BME280;43755;49.736;8.734;2023-05-14T01:29:55;97919.94;;;7.61;100.00
11448;BME280;43755;49.736;8.734;2023-05-14T01:31:59;97920.72;;;7.64;100.00
11448;BME280;43755;49.736;8.734;2023-05-14T01:34:03;97917.19;;;7.65;100.00
11448;BME280;43755;49.736;8.734;2023-05-14T01:36:06;97911.16;;;7.62;100.00
11448;BME280;43755;49.736;8.734;2023-05-14T01:38:10;97917.47;;;7.56;100.00
11448;BME280;43755;49.736;8.734;2023-05-14T01:40:12;97910.75;;;7.48;100.00
11448;BME280;43755;49.736;8.734;2023-05-14T01:42:14;97929.41;;;7.40;100.00
11448;BME280;43755;49.736;8.734;2023-05-14T01:44:16;97919.91;;;7.36;100.00
11448;BME280;43755;49.736;8.734;2023-05-14T01:46:18;97919.03;;;7.35;100.00
11448;BME280;43755;49.736;8.734;2023-05-14T01:48:20;97913.81;;;7.34;100.00
11448;BME280;43755;49.736;8.734;2023-05-14T01:50:21;97914.72;;;7.33;100.00
11448;BME280;43755;49.736;8.734;2023-05-14T01:52:23;97913.81;;;7.34;100.00
11448;BME280;43755;49.736;8.734;2023-05-14T01:54:25;97912.09;;;7.33;100.00
11448;BME280;43755;49.736;8.734;2023-05-14T01:56:27;97911.25;;;7.31;100.00
11448;BME280;43755;49.736;8.734;2023-05-14T01:58:28;97901.75;;;7.27;100.00
11448;BME280;43755;49.736;8.734;2023-05-14T02:00:30;97904.41;;;7.25;100.00
11448;BME280;43755;49.736;8.734;2023-05-14T02:02:31;97909.63;;;7.27;100.00
11448;BME280;43755;49.736;8.734;2023-05-14T02:04:33;97905.34;;;7.24;100.00
11448;BME280;43755;49.736;8.734;2023-05-14T02:06:34;97904.56;;;7.21;100.00
11448;BME280;43755;49.736;8.734;2023-05-14T02:08:35;97913.34;;;7.20;100.00
11448;BME280;43755;49.736;8.734;2023-05-14T02:10:38;97910.69;;;7.21;100.00
11448;BME280;43755;49.736;8.734;2023-05-14T02:12:39;97908.09;;;7.20;100.00
11448;BME280;43755;49.736;8.734;2023-05-14T02:14:41;97903.63;;;7.23;100.00
11448;BME280;43755;49.736;8.734;2023-05-14T02:16:42;97896.59;;;7.24;100.00
11448;BME280;43755;49.736;8.734;2023-05-14T02:18:44;97901.91;;;7.22;100.00
11448;BME280;43755;49.736;8.734;2023-05-14T02:20:45;97902.84;;;7.20;100.00
11448;BME280;43755;49.736;8.734;2023-05-14T02:22:46;97897.69;;;7.17;100.00
11448;BME280;43755;49.736;8.734;2023-05-14T02:24:48;97904.69;;;7.18;100.00
11448;BME280;43755;49.736;8.734;2023-05-14T02:26:51;97902.03;;;7.18;100.00
11448;BME280;43755;49.736;8.734;2023-05-14T02:28:53;97902.97;;;7.15;100.00
11448;BME280;43755;49.736;8.734;2023-05-14T02:30:57;97900.50;;;7.11;100.00
11448;BME280;43755;49.736;8.734;2023-05-14T02:32:58;97903.22;;;7.08;100.00
11448;BME280;43755;49.736;8.734;2023-05-14T02:35:00;97896.97;;;7.12;100.00
11448;BME280;43755;49.736;8.734;2023-05-14T02:37:02;97891.56;;;7.16;100.00
11448;BME280;43755;49.736;8.734;2023-05-14T02:39:03;97896.66;;;7.21;100.00
11448;BME280;43755;49.736;8.734;2023-05-14T02:41:05;97890.47;;;7.23;100.00
11448;BME280;43755;49.736;8.734;2023-05-14T02:43:07;97893.00;;;7.26;100.00
11448;BME280;43755;49.736;8.734;2023-05-14T02:45:09;97894.75;;;7.26;100.00
11448;BME280;43755;49.736;8.734;2023-05-14T02:47:11;97891.34;;;7.24;100.00
11448;BME280;43755;49.736;8.734;2023-05-14T02:49:12;97896.59;;;7.24;100.00
11448;BME280;43755;49.736;8.734;2023-05-14T02:51:14;97901.03;;;7.22;100.00
11448;BME280;43755;49.736;8.734;2023-05-14T02:53:16;97898.47;;;7.19;100.00
11448;BME280;43755;49.736;8.734;2023-05-14T02:55:17;97896.81;;;7.16;100.00
11448;BME280;43755;49.736;8.734;2023-05-14T02:57:19;97899.59;;;7.12;100.00
11448;BME280;43755;49.736;8.734;2023-05-14T02:59:23;97888.28;;;7.08;100.00
11448;BME280;43755;49.736;8.734;2023-05-14T03:01:24;97890.25;;;7.02;100.00
11448;BME280;43755;49.736;8.734;2023-05-14T03:03:27;97891.25;;;6.97;100.00
11448;BME280;43755;49.736;8.734;2023-05-14T03:05:28;97888.47;;;7.02;100.00
11448;BME280;43755;49.736;8.734;2023-05-14T03:07:30;97889.38;;;7.01;100.00
11448;BME280;43755;49.736;8.734;2023-05-14T03:09:31;97889.44;;;6.99;100.00
11448;BME280;43755;49.736;8.734;2023-05-14T03:11:33;97892.06;;;6.99;100.00
11448;BME280;43755;49.736;8.734;2023-05-14T03:13:34;97880.66;;;7.01;100.00
11448;BME280;43755;49.736;8.734;2023-05-14T03:15:37;97895.47;;;7.03;100.00
11448;BME280;43755;49.736;8.734;2023-05-14T03:17:38;97884.97;;;7.02;100.00
11448;BME280;43755;49.736;8.734;2023-05-14T03:19:40;97894.56;;;7.04;100.00
11448;BME280;43755;49.736;8.734;2023-05-14T03:21:41;97894.53;;;7.06;100.00
11448;BME280;43755;49.736;8.734;2023-05-14T03:23:42;97893.69;;;7.04;100.00
11448;BME280;43755;49.736;8.734;2023-05-14T03:25:44;97891.19;;;7.01;100.00
11448;BME280;43755;49.736;8.734;2023-05-14T03:27:45;97886.81;;;6.99;100.00
11448;BME280;43755;49.736;8.734;2023-05-14T03:29:47;97892.13;;;6.98;100.00
11448;BME280;43755;49.736;8.734;2023-05-14T03:31:49;97887.97;;;6.89;100.00
11448;BME280;43755;49.736;8.734;2023-05-14T03:33:51;97889.09;;;6.82;100.00
11448;BME280;43755;49.736;8.734;2023-05-14T03:35:52;97892.63;;;6.81;100.00
11448;BME280;43755;49.736;8.734;2023-05-14T03:37:53;97888.31;;;6.79;100.00
11448;BME280;43755;49.736;8.734;2023-05-14T03:39:57;97887.41;;;6.80;100.00
11448;BME280;43755;49.736;8.734;2023-05-14T03:41:58;97878.75;;;6.76;100.00
11448;BME280;43755;49.736;8.734;2023-05-14T03:44:00;97878.75;;;6.76;100.00
11448;BME280;43755;49.736;8.734;2023-05-14T03:46:01;97882.34;;;6.72;100.00
11448;BME280;43755;49.736;8.734;2023-05-14T03:48:05;97885.09;;;6.69;100.00
11448;BME280;43755;49.736;8.734;2023-05-14T03:50:07;97885.28;;;6.63;100.00
11448;BME280;43755;49.736;8.734;2023-05-14T03:52:09;97884.50;;;6.60;100.00
11448;BME280;43755;49.736;8.734;2023-05-14T03:54:10;97885.47;;;6.55;100.00
11448;BME280;43755;49.736;8.734;2023-05-14T03:56:11;97885.63;;;6.51;100.00
11448;BME280;43755;49.736;8.734;2023-05-14T03:58:13;97879.59;;;6.47;100.00
11448;BME280;43755;49.736;8.734;2023-05-14T04:00:15;97884.00;;;6.47;100.00
11448;BME280;43755;49.736;8.734;2023-05-14T04:02:16;97881.25;;;6.50;100.00
11448;BME280;43755;49.736;8.734;2023-05-14T04:04:19;97881.94;;;6.56;100.00
11448;BME280;43755;49.736;8.734;2023-05-14T04:06:20;97881.81;;;6.61;100.00
11448;BME280;43755;49.736;8.734;2023-05-14T04:08:21;97879.91;;;6.66;100.00
11448;BME280;43755;49.736;8.734;2023-05-14T04:10:23;97888.44;;;6.74;100.00
11448;BME280;43755;49.736;8.734;2023-05-14T04:12:24;97883.00;;;6.80;100.00
11448;BME280;43755;49.736;8.734;2023-05-14T04:14:26;97879.38;;;6.84;100.00
11448;BME280;43755;49.736;8.734;2023-05-14T04:16:27;97883.69;;;6.87;100.00
11448;BME280;43755;49.736;8.734;2023-05-14T04:18:29;97886.28;;;6.88;100.00
11448;BME280;43755;49.736;8.734;2023-05-14T04:20:35;97881.97;;;6.86;100.00
11448;BME280;43755;49.736;8.734;2023-05-14T04:22:37;97891.03;;;6.76;100.00
11448;BME280;43755;49.736;8.734;2023-05-14T04:24:38;97883.56;;;6.61;100.00
11448;BME280;43755;49.736;8.734;2023-05-14T04:26:39;97888.03;;;6.58;100.00
11448;BME280;43755;49.736;8.734;2023-05-14T04:28:41;97887.25;;;6.55;100.00
11448;BME280;43755;49.736;8.734;2023-05-14T04:30:42;97882.81;;;6.57;100.00
11448;BME280;43755;49.736;8.734;2023-05-14T04:32:44;97883.81;;;6.53;100.00
11448;BME280;43755;49.736;8.734;2023-05-14T04:34:46;97883.81;;;6.53;100.00
11448;BME280;43755;49.736;8.734;2023-05-14T04:36:48;97885.47;;;6.55;100.00
11448;BME280;43755;49.736;8.734;2023-05-14T04:38:51;97877.53;;;6.58;100.00
11448;BME280;43755;49.736;8.734;2023-05-14T04:40:52;97876.47;;;6.64;100.00
11448;BME280;43755;49.736;8.734;2023-05-14T04:42:53;97888.66;;;6.67;100.00
11448;BME280;43755;49.736;8.734;2023-05-14T04:44:55;97885.78;;;6.76;100.00
11448;BME280;43755;49.736;8.734;2023-05-14T04:46:57;97884.78;;;6.80;100.00
11448;BME280;43755;49.736;8.734;2023-05-14T04:48:58;97876.06;;;6.78;100.00
11448;BME280;43755;49.736;8.734;2023-05-14T04:50:59;97883.84;;;6.82;100.00
11448;BME280;43755;49.736;8.734;2023-05-14T04:53:04;97882.81;;;6.86;100.00
11448;BME280;43755;49.736;8.734;2023-05-14T04:55:06;97884.19;;;6.99;100.00
11448;BME280;43755;49.736;8.734;2023-05-14T04:57:08;97888.16;;;7.13;100.00
11448;BME280;43755;49.736;8.734;2023-05-14T04:59:09;97887.66;;;7.29;100.00
11448;BME280;43755;49.736;8.734;2023-05-14T05:01:10;97886.28;;;7.44;100.00
11448;BME280;43755;49.736;8.734;2023-05-14T05:03:12;97894.81;;;7.52;100.00
11448;BME280;43755;49.736;8.734;2023-05-14T05:05:13;97885.94;;;7.55;100.00
11448;BME280;43755;49.736;8.734;2023-05-14T05:07:15;97894.44;;;7.63;100.00
11448;BME280;43755;49.736;8.734;2023-05-14T05:09:17;97893.19;;;7.74;100.00
11448;BME280;43755;49.736;8.734;2023-05-14T05:11:19;97891.03;;;7.86;100.00
11448;BME280;43755;49.736;8.734;2023-05-14T05:13:20;97888.00;;;7.98;100.00
11448;BME280;43755;49.736;8.734;2023-05-14T05:15:22;97887.19;;;8.20;100.00
11448;BME280;43755;49.736;8.734;2023-05-14T05:17:23;97882.91;;;8.43;100.00
11448;BME280;43755;49.736;8.734;2023-05-14T05:19:25;97887.16;;;8.72;100.00
11448;BME280;43755;49.736;8.734;2023-05-14T05:21:26;97884.59;;;8.92;100.00
11448;BME280;43755;49.736;8.734;2023-05-14T05:23:28;97893.88;;;9.02;100.00
11448;BME280;43755;49.736;8.734;2023-05-14T05:25:31;97891.69;;;9.13;100.00
11448;BME280;43755;49.736;8.734;2023-05-14T05:27:32;97889.13;;;9.12;100.00
11448;BME280;43755;49.736;8.734;2023-05-14T05:29:34;97888.91;;;9.39;100.00
11448;BME280;43755;49.736;8.734;2023-05-14T05:31:35;97888.38;;;9.53;100.00
11448;BME280;43755;49.736;8.734;2023-05-14T05:33:37;97890.00;;;9.56;100.00
11448;BME280;43755;49.736;8.734;2023-05-14T05:35:38;97882.50;;;9.67;100.00
11448;BME280;43755;49.736;8.734;2023-05-14T05:37:41;97882.09;;;9.77;100.00
11448;BME280;43755;49.736;8.734;2023-05-14T05:39:44;97894.63;;;9.93;100.00
11448;BME280;43755;49.736;8.734;2023-05-14T05:41:48;97890.38;;;10.10;100.00
11448;BME280;43755;49.736;8.734;2023-05-14T05:43:50;97887.28;;;10.21;100.00
11448;BME280;43755;49.736;8.734;2023-05-14T05:45:51;97884.31;;;10.29;100.00
11448;BME280;43755;49.736;8.734;2023-05-14T05:47:52;97885.97;;;10.31;100.00
11448;BME280;43755;49.736;8.734;2023-05-14T05:49:54;97891.72;;;10.41;100.00
11448;BME280;43755;49.736;8.734;2023-05-14T05:51:56;97894.97;;;10.47;100.00
11448;BME280;43755;49.736;8.734;2023-05-14T05:53:57;97894.41;;;10.59;100.00
11448;BME280;43755;49.736;8.734;2023-05-14T05:55:58;97889.72;;;10.66;100.00
11448;BME280;43755;49.736;8.734;2023-05-14T05:58:01;97898.56;;;10.65;100.00
11448;BME280;43755;49.736;8.734;2023-05-14T06:00:03;97889.56;;;10.69;100.00
11448;BME280;43755;49.736;8.734;2023-05-14T06:02:12;97888.59;;;10.72;100.00
11448;BME280;43755;49.736;8.734;2023-05-14T06:04:13;97894.31;;;10.81;100.00
11448;BME280;43755;49.736;8.734;2023-05-14T06:06:14;97889.81;;;10.83;100.00
11448;BME280;43755;49.736;8.734;2023-05-14T06:08:16;97889.72;;;10.85;100.00
11448;BME280;43755;49.736;8.734;2023-05-14T06:10:17;97894.09;;;10.86;100.00
11448;BME280;43755;49.736;8.734;2023-05-14T06:12:18;97890.38;;;10.90;100.00
11448;BME280;43755;49.736;8.734;2023-05-14T06:14:22;97895.53;;;10.93;100.00
11448;BME280;43755;49.736;8.734;2023-05-14T06:16:23;97901.06;;;11.07;100.00
11448;BME280;43755;49.736;8.734;2023-05-14T06:18:24;97904.63;;;11.06;100.00
11448;BME280;43755;49.736;8.734;2023-05-14T06:20:26;97901.06;;;11.07;100.00
11448;BME280;43755;49.736;8.734;2023-05-14T06:22:27;97895.97;;;11.21;100.00
11448;BME280;43755;49.736;8.734;2023-05-14T06:24:29;97897.25;;;11.31;100.00
11448;BME280;43755;49.736;8.734;2023-05-14T06:26:30;97898.28;;;11.29;100.00
11448;BME280;43755;49.736;8.734;2023-05-14T06:28:31;97900.97;;;11.27;100.00
11448;BME280;43755;49.736;8.734;2023-05-14T06:30:34;97897.69;;;11.41;100.00
11448;BME280;43755;49.736;8.734;2023-05-14T06:32:36;97895.59;;;11.47;100.00
11448;BME280;43755;49.736;8.734;2023-05-14T06:34:37;97895.03;;;11.41;100.00
11448;BME280;43755;49.736;8.734;2023-05-14T06:36:38;97892.78;;;11.50;100.00
11448;BME280;43755;49.736;8.734;2023-05-14T06:38:40;97894.06;;;11.61;100.00
11448;BME280;43755;49.736;8.734;2023-05-14T06:40:41;97898.31;;;11.65;100.00
11448;BME280;43755;49.736;8.734;2023-05-14T06:42:43;97902.19;;;11.76;100.00
11448;BME280;43755;49.736;8.734;2023-05-14T06:44:44;97893.00;;;12.01;100.00
11448;BME280;43755;49.736;8.734;2023-05-14T06:46:47;97898.31;;;12.18;100.00
11448;BME280;43755;49.736;8.734;2023-05-14T06:48:48;97904.63;;;12.32;100.00
11448;BME280;43755;49.736;8.734;2023-05-14T06:50:49;97903.84;;;12.48;100.00
11448;BME280;43755;49.736;8.734;2023-05-14T06:52:51;97899.72;;;12.42;100.00
11448;BME280;43755;49.736;8.734;2023-05-14T06:54:52;97900.66;;;12.07;100.00
11448;BME280;43755;49.736;8.734;2023-05-14T06:56:54;97890.97;;;12.06;100.00
11448;BME280;43755;49.736;8.734;2023-05-14T06:58:55;97893.16;;;11.98;100.00
11448;BME280;43755;49.736;8.734;2023-05-14T07:00:56;97889.25;;;11.87;100.00
11448;BME280;43755;49.736;8.734;2023-05-14T07:02:59;97892.28;;;11.80;100.00
11448;BME280;43755;49.736;8.734;2023-05-14T07:05:01;97889.38;;;11.84;100.00
11448;BME280;43755;49.736;8.734;2023-05-14T07:07:02;97879.56;;;11.86;100.00
11448;BME280;43755;49.736;8.734;2023-05-14T07:09:04;97877.72;;;11.88;100.00
11448;BME280;43755;49.736;8.734;2023-05-14T07:11:06;97877.41;;;11.95;100.00
11448;BME280;43755;49.736;8.734;2023-05-14T07:13:07;97876.91;;;11.86;100.00
11448;BME280;43755;49.736;8.734;2023-05-14T07:15:09;97879.03;;;11.97;100.00
11448;BME280;43755;49.736;8.734;2023-05-14T07:17:11;97877.66;;;12.07;100.00
11448;BME280;43755;49.736;8.734;2023-05-14T07:19:14;97876.00;;;12.22;100.00
11448;BME280;43755;49.736;8.734;2023-05-14T07:21:15;97874.13;;;12.41;100.00
11448;BME280;43755;49.736;8.734;2023-05-14T07:23:17;97876.94;;;12.21;100.00
11448;BME280;43755;49.736;8.734;2023-05-14T07:25:18;97872.25;;;12.26;100.00
11448;BME280;43755;49.736;8.734;2023-05-14T07:27:20;97877.03;;;12.37;100.00
11448;BME280;43755;49.736;8.734;2023-05-14T07:29:21;97871.41;;;12.43;100.00
11448;BME280;43755;49.736;8.734;2023-05-14T07:31:24;97880.34;;;12.57;100.00
11448;BME280;43755;49.736;8.734;2023-05-14T07:33:25;97870.13;;;12.83;100.00
11448;BME280;43755;49.736;8.734;2023-05-14T07:35:28;97870.75;;;13.03;100.00
11448;BME280;43755;49.736;8.734;2023-05-14T07:37:29;97871.69;;;13.02;100.00
11448;BME280;43755;49.736;8.734;2023-05-14T07:39:31;97866.28;;;12.88;100.00
11448;BME280;43755;49.736;8.734;2023-05-14T07:41:32;97857.69;;;13.16;100.00
11448;BME280;43755;49.736;8.734;2023-05-14T07:43:34;97862.16;;;13.31;100.00
11448;BME280;43755;49.736;8.734;2023-05-14T07:45:37;97859.06;;;13.07;100.00
11448;BME280;43755;49.736;8.734;2023-05-14T07:47:39;97854.63;;;12.91;100.00
11448;BME280;43755;49.736;8.734;2023-05-14T07:49:40;97852.16;;;13.03;100.00
11448;BME280;43755;49.736;8.734;2023-05-14T07:51:43;97852.91;;;13.23;100.00
11448;BME280;43755;49.736;8.734;2023-05-14T07:53:44;97861.66;;;13.40;100.00
11448;BME280;43755;49.736;8.734;2023-05-14T07:55:47;97862.78;;;13.03;100.00
11448;BME280;43755;49.736;8.734;2023-05-14T07:57:49;97858.84;;;12.95;100.00
11448;BME280;43755;49.736;8.734;2023-05-14T07:59:50;97860.84;;;13.07;100.00
11448;BME280;43755;49.736;8.734;2023-05-14T08:01:52;97862.53;;;13.25;100.00
11448;BME280;43755;49.736;8.734;2023-05-14T08:03:53;97858.22;;;13.23;100.00
11448;BME280;43755;49.736;8.734;2023-05-14T08:05:55;97855.44;;;13.08;100.00
11448;BME280;43755;49.736;8.734;2023-05-14T08:07:58;97852.69;;;13.10;100.00
11448;BME280;43755;49.736;8.734;2023-05-14T08:09:59;97857.16;;;13.09;100.00
11448;BME280;43755;49.736;8.734;2023-05-14T08:12:01;97855.38;;;13.26;100.00
11448;BME280;43755;49.736;8.734;2023-05-14T08:14:02;97861.13;;;13.18;100.00
11448;BME280;43755;49.736;8.734;2023-05-14T08:16:04;97854.97;;;13.33;100.00
11448;BME280;43755;49.736;8.734;2023-05-14T08:18:06;97858.56;;;13.48;100.00
11448;BME280;43755;49.736;8.734;2023-05-14T08:20:08;97863.09;;;13.46;100.00
11448;BME280;43755;49.736;8.734;2023-05-14T08:22:11;97858.22;;;13.38;100.00
11448;BME280;43755;49.736;8.734;2023-05-14T08:24:13;97853.50;;;13.28;100.00
11448;BME280;43755;49.736;8.734;2023-05-14T08:26:15;97851.53;;;13.31;100.00
11448;BME280;43755;49.736;8.734;2023-05-14T08:28:16;97855.91;;;13.32;100.00
11448;BME280;43755;49.736;8.734;2023-05-14T08:30:18;97844.69;;;13.27;100.00
11448;BME280;43755;49.736;8.734;2023-05-14T08:32:19;97846.75;;;13.22;100.00
11448;BME280;43755;49.736;8.734;2023-05-14T08:34:21;97847.38;;;13.10;100.00
11448;BME280;43755;49.736;8.734;2023-05-14T08:36:22;97836.63;;;13.29;100.00
11448;BME280;43755;49.736;8.734;2023-05-14T08:38:24;97847.34;;;13.43;100.00
11448;BME280;43755;49.736;8.734;2023-05-14T08:40:27;97846.66;;;13.39;100.00
11448;BME280;43755;49.736;8.734;2023-05-14T08:42:28;97854.63;;;13.39;100.00
11448;BME280;43755;49.736;8.734;2023-05-14T08:44:32;97840.06;;;13.31;100.00
11448;BME280;43755;49.736;8.734;2023-05-14T08:46:36;97845.69;;;13.56;100.00
11448;BME280;43755;49.736;8.734;2023-05-14T08:48:39;97848.72;;;13.80;100.00
11448;BME280;43755;49.736;8.734;2023-05-14T08:50:42;97840.00;;;14.08;100.00
11448;BME280;43755;49.736;8.734;2023-05-14T08:52:44;97840.47;;;14.00;100.00
11448;BME280;43755;49.736;8.734;2023-05-14T08:54:46;97853.63;;;14.17;100.00
11448;BME280;43755;49.736;8.734;2023-05-14T08:56:50;97838.78;;;14.13;100.00
11448;BME280;43755;49.736;8.734;2023-05-14T08:58:52;97839.75;;;14.26;100.00
11448;BME280;43755;49.736;8.734;2023-05-14T09:00:53;97841.25;;;14.46;100.00
11448;BME280;43755;49.736;8.734;2023-05-14T09:02:55;97838.50;;;14.48;100.00
11448;BME280;43755;49.736;8.734;2023-05-14T09:04:58;97836.88;;;14.73;100.00
11448;BME280;43755;49.736;8.734;2023-05-14T09:07:01;97836.31;;;14.68;100.00
11448;BME280;43755;49.736;8.734;2023-05-14T09:09:03;97836.72;;;14.77;100.00
11448;BME280;43755;49.736;8.734;2023-05-14T09:11:05;97837.56;;;14.63;100.00
11448;BME280;43755;49.736;8.734;2023-05-14T09:13:07;97834.50;;;14.41;100.00
11448;BME280;43755;49.736;8.734;2023-05-14T09:15:09;97832.06;;;14.66;100.00
11448;BME280;43755;49.736;8.734;2023-05-14T09:17:11;97827.94;;;15.03;100.00
11448;BME280;43755;49.736;8.734;2023-05-14T09:19:12;97834.28;;;15.14;100.00
11448;BME280;43755;49.736;8.734;2023-05-14T09:21:14;97824.00;;;15.08;100.00
11448;BME280;43755;49.736;8.734;2023-05-14T09:23:16;97828.84;;;15.30;100.00
11448;BME280;43755;49.736;8.734;2023-05-14T09:25:17;97822.59;;;15.44;100.00
11448;BME280;43755;49.736;8.734;2023-05-14T09:27:19;97828.97;;;15.55;100.00
11448;BME280;43755;49.736;8.734;2023-05-14T09:29:22;97833.50;;;15.27;100.00
11448;BME280;43755;49.736;8.734;2023-05-14T09:31:24;97831.97;;;15.37;100.00
11448;BME280;43755;49.736;8.734;2023-05-14T09:33:26;97834.78;;;15.62;100.00
11448;BME280;43755;49.736;8.734;2023-05-14T09:35:28;97825.38;;;15.83;100.00
11448;BME280;43755;49.736;8.734;2023-05-14T09:37:35;97838.81;;;15.41;100.00
11448;BME280;43755;49.736;8.734;2023-05-14T09:39:36;97834.34;;;15.27;100.00
11448;BME280;43755;49.736;8.734;2023-05-14T09:41:38;97836.38;;;15.24;100.00
11448;BME280;43755;49.736;8.734;2023-05-14T09:43:39;97829.34;;;15.23;100.00
11448;BME280;43755;49.736;8.734;2023-05-14T09:45:42;97830.56;;;15.17;100.00
11448;BME280;43755;49.736;8.734;2023-05-14T09:47:44;97831.91;;;15.65;100.00
11448;BME280;43755;49.736;8.734;2023-05-14T09:49:47;97826.50;;;15.79;100.00
11448;BME280;43755;49.736;8.734;2023-05-14T09:51:50;97828.72;;;15.73;100.00
11448;BME280;43755;49.736;8.734;2023-05-14T09:53:52;97834.31;;;15.82;99.42
11448;BME280;43755;49.736;8.734;2023-05-14T09:55:54;97820.72;;;16.00;100.00
11448;BME280;43755;49.736;8.734;2023-05-14T09:57:55;97827.22;;;15.95;93.52
11448;BME280;43755;49.736;8.734;2023-05-14T09:59:56;97824.31;;;15.98;92.98
11448;BME280;43755;49.736;8.734;2023-05-14T10:01:59;97820.97;;;16.22;97.56
11448;BME280;43755;49.736;8.734;2023-05-14T10:04:02;97818.84;;;16.52;94.77
11448;BME280;43755;49.736;8.734;2023-05-14T10:06:06;97818.78;;;16.66;96.66
11448;BME280;43755;49.736;8.734;2023-05-14T10:08:13;97817.03;;;16.40;91.01
11448;BME280;43755;49.736;8.734;2023-05-14T10:10:17;97823.06;;;16.04;94.01
11448;BME280;43755;49.736;8.734;2023-05-14T10:12:20;97816.84;;;15.91;96.37
11448;BME280;43755;49.736;8.734;2023-05-14T10:14:26;97821.44;;;15.89;88.41
11448;BME280;43755;49.736;8.734;2023-05-14T10:16:32;97828.34;;;15.52;89.95
11448;BME280;43755;49.736;8.734;2023-05-14T10:18:39;97824.00;;;15.49;98.33
11448;BME280;43755;49.736;8.734;2023-05-14T10:20:42;97817.22;;;16.12;99.67
11448;BME280;43755;49.736;8.734;2023-05-14T10:22:45;97828.41;;;16.04;93.15
11448;BME280;43755;49.736;8.734;2023-05-14T10:24:47;97827.94;;;15.97;93.73
11448;BME280;43755;49.736;8.734;2023-05-14T10:26:51;97836.19;;;15.94;94.32
11448;BME280;43755;49.736;8.734;2023-05-14T10:28:53;97830.56;;;16.12;94.71
11448;BME280;43755;49.736;8.734;2023-05-14T10:30:55;97819.38;;;16.19;92.86
11448;BME280;43755;49.736;8.734;2023-05-14T10:33:07;97821.47;;;16.66;92.20
11448;BME280;43755;49.736;8.734;2023-05-14T10:35:18;97809.56;;;16.96;91.65
11448;BME280;43755;49.736;8.734;2023-05-14T10:37:23;97820.91;;;16.61;90.55
11448;BME280;43755;49.736;8.734;2023-05-14T10:39:42;97823.00;;;16.31;83.61
11448;BME280;43755;49.736;8.734;2023-05-14T10:41:43;97822.69;;;16.35;88.86
11448;BME280;43755;49.736;8.734;2023-05-14T10:43:45;97821.53;;;16.52;89.12